sensor_id;sensor_type;location;lat;lon;timestamp;P1;durP1;ratioP1;P2;durP2;ratioP2
70457;SDS011;57919;56.194;95.716;2023-02-08T00:08:16;55.10;;;30.43;;
70457;SDS011;57919;56.194;95.716;2023-02-08T00:18:18;63.03;;;33.15;;
70457;SDS011;57919;56.194;95.716;2023-02-08T00:28:20;41.17;;;25.60;;
70457;SDS011;57919;56.194;95.716;2023-02-08T00:38:22;53.17;;;28.87;;
70457;SDS011;57919;56.194;95.716;2023-02-08T00:48:26;102.20;;;55.42;;
70457;SDS011;57919;56.194;95.716;2023-02-08T00:58:28;91.55;;;40.70;;
70457;SDS011;57919;56.194;95.716;2023-02-08T01:08:30;79.17;;;43.40;;
70457;SDS011;57919;56.194;95.716;2023-02-08T01:18:32;61.33;;;31.27;;
70457;SDS011;57919;56.194;95.716;2023-02-08T01:28:34;66.45;;;38.80;;
70457;SDS011;57919;56.194;95.716;2023-02-08T01:38:37;72.67;;;40.97;;
70457;SDS011;57919;56.194;95.716;2023-02-08T01:48:40;160.50;;;75.60;;
70457;SDS011;57919;56.194;95.716;2023-02-08T01:58:43;151.48;;;78.70;;
70457;SDS011;57919;56.194;95.716;2023-02-08T02:20:22;142.60;;;68.03;;
70457;SDS011;57919;56.194;95.716;2023-02-08T02:40:44;131.55;;;68.50;;
70457;SDS011;57919;56.194;95.716;2023-02-08T02:51:05;270.60;;;123.97;;
70457;SDS011;57919;56.194;95.716;2023-02-08T03:01:12;279.17;;;137.80;;
70457;SDS011;57919;56.194;95.716;2023-02-08T03:11:25;280.20;;;132.52;;
70457;SDS011;57919;56.194;95.716;2023-02-08T03:21:37;395.97;;;181.77;;
70457;SDS011;57919;56.194;95.716;2023-02-08T03:31:49;337.67;;;159.03;;
70457;SDS011;57919;56.194;95.716;2023-02-08T03:41:59;373.35;;;157.18;;
70457;SDS011;57919;56.194;95.716;2023-02-08T03:52:05;355.33;;;136.63;;
70457;SDS011;57919;56.194;95.716;2023-02-08T04:02:11;263.00;;;99.27;;
70457;SDS011;57919;56.194;95.716;2023-02-08T04:12:17;100.15;;;43.65;;
70457;SDS011;57919;56.194;95.716;2023-02-08T04:22:19;116.65;;;42.28;;
70457;SDS011;57919;56.194;95.716;2023-02-08T04:32:20;32.00;;;12.13;;
70457;SDS011;57919;56.194;95.716;2023-02-08T04:42:22;36.00;;;16.00;;
70457;SDS011;57919;56.194;95.716;2023-02-08T04:52:24;38.88;;;15.38;;
70457;SDS011;57919;56.194;95.716;2023-02-08T05:02:26;48.10;;;17.30;;
70457;SDS011;57919;56.194;95.716;2023-02-08T05:12:29;116.00;;;44.07;;
70457;SDS011;57919;56.194;95.716;2023-02-08T05:22:31;61.72;;;23.02;;
70457;SDS011;57919;56.194;95.716;2023-02-08T05:32:33;68.37;;;27.43;;
70457;SDS011;57919;56.194;95.716;2023-02-08T05:42:35;209.37;;;79.53;;
70457;SDS011;57919;56.194;95.716;2023-02-08T05:52:37;261.35;;;97.55;;
70457;SDS011;57919;56.194;95.716;2023-02-08T06:02:39;223.90;;;85.27;;
70457;SDS011;57919;56.194;95.716;2023-02-08T06:12:41;257.63;;;94.83;;
70457;SDS011;57919;56.194;95.716;2023-02-08T06:22:43;229.00;;;87.23;;
70457;SDS011;57919;56.194;95.716;2023-02-08T06:32:45;271.25;;;98.80;;
70457;SDS011;57919;56.194;95.716;2023-02-08T06:42:47;144.87;;;57.40;;
70457;SDS011;57919;56.194;95.716;2023-02-08T06:52:49;244.30;;;95.23;;
70457;SDS011;57919;56.194;95.716;2023-02-08T07:02:51;222.68;;;83.85;;
70457;SDS011;57919;56.194;95.716;2023-02-08T07:12:53;238.93;;;90.60;;
70457;SDS011;57919;56.194;95.716;2023-02-08T07:22:55;248.07;;;96.50;;
70457;SDS011;57919;56.194;95.716;2023-02-08T07:32:56;298.10;;;109.00;;
70457;SDS011;57919;56.194;95.716;2023-02-08T07:42:58;271.80;;;104.67;;
70457;SDS011;57919;56.194;95.716;2023-02-08T07:53:11;275.83;;;103.80;;
70457;SDS011;57919;56.194;95.716;2023-02-08T08:03:13;329.27;;;121.13;;
70457;SDS011;57919;56.194;95.716;2023-02-08T08:13:15;343.38;;;126.15;;
70457;SDS011;57919;56.194;95.716;2023-02-08T08:23:17;450.73;;;171.90;;
70457;SDS011;57919;56.194;95.716;2023-02-08T08:33:20;545.70;;;228.67;;
70457;SDS011;57919;56.194;95.716;2023-02-08T08:43:22;482.13;;;194.00;;
70457;SDS011;57919;56.194;95.716;2023-02-08T08:53:23;531.23;;;221.37;;
70457;SDS011;57919;56.194;95.716;2023-02-08T09:03:26;591.43;;;262.90;;
70457;SDS011;57919;56.194;95.716;2023-02-08T09:13:29;515.00;;;216.15;;
70457;SDS011;57919;56.194;95.716;2023-02-08T09:23:31;478.90;;;185.30;;
70457;SDS011;57919;56.194;95.716;2023-02-08T09:33:33;447.83;;;167.20;;
70457;SDS011;57919;56.194;95.716;2023-02-08T09:53:53;552.35;;;250.07;;
70457;SDS011;57919;56.194;95.716;2023-02-08T10:04:05;518.93;;;219.93;;
70457;SDS011;57919;56.194;95.716;2023-02-08T10:24:45;436.02;;;164.55;;
70457;SDS011;57919;56.194;95.716;2023-02-08T10:34:59;365.07;;;146.33;;
70457;SDS011;57919;56.194;95.716;2023-02-08T10:45:07;404.60;;;161.17;;
70457;SDS011;57919;56.194;95.716;2023-02-08T10:55:35;323.50;;;134.23;;
70457;SDS011;57919;56.194;95.716;2023-02-08T11:05:40;354.20;;;144.68;;
70457;SDS011;57919;56.194;95.716;2023-02-08T11:15:54;338.47;;;131.27;;
70457;SDS011;57919;56.194;95.716;2023-02-08T11:36:35;344.58;;;131.00;;
70457;SDS011;57919;56.194;95.716;2023-02-08T11:46:44;326.80;;;136.23;;
70457;SDS011;57919;56.194;95.716;2023-02-08T11:56:53;327.30;;;129.70;;
70457;SDS011;57919;56.194;95.716;2023-02-08T13:10:19;358.80;;;137.50;;
70457;SDS011;57919;56.194;95.716;2023-02-08T13:20:46;508.73;;;241.32;;
70457;SDS011;57919;56.194;95.716;2023-02-08T13:31:00;450.33;;;203.83;;
70457;SDS011;57919;56.194;95.716;2023-02-08T13:41:13;448.10;;;208.17;;
70457;SDS011;57919;56.194;95.716;2023-02-08T13:52:01;511.85;;;248.70;;
70457;SDS011;57919;56.194;95.716;2023-02-08T14:12:23;555.17;;;285.07;;
70457;SDS011;57919;56.194;95.716;2023-02-08T14:22:35;567.15;;;282.27;;
70457;SDS011;57919;56.194;95.716;2023-02-08T14:32:40;577.42;;;294.05;;
70457;SDS011;57919;56.194;95.716;2023-02-08T14:42:57;641.13;;;329.67;;
70457;SDS011;57919;56.194;95.716;2023-02-08T14:53:26;599.03;;;301.83;;
70457;SDS011;57919;56.194;95.716;2023-02-08T15:03:34;537.30;;;265.40;;
70457;SDS011;57919;56.194;95.716;2023-02-08T15:13:37;360.67;;;178.33;;
70457;SDS011;57919;56.194;95.716;2023-02-08T15:23:39;478.20;;;227.10;;
70457;SDS011;57919;56.194;95.716;2023-02-08T15:33:41;536.30;;;277.50;;
70457;SDS011;57919;56.194;95.716;2023-02-08T15:43:44;600.37;;;313.20;;
70457;SDS011;57919;56.194;95.716;2023-02-08T15:53:47;385.37;;;179.90;;
70457;SDS011;57919;56.194;95.716;2023-02-08T16:03:57;369.52;;;169.57;;
70457;SDS011;57919;56.194;95.716;2023-02-08T16:14:01;268.92;;;107.35;;
70457;SDS011;57919;56.194;95.716;2023-02-08T16:34:13;161.00;;;66.70;;
70457;SDS011;57919;56.194;95.716;2023-02-08T16:54:27;37.43;;;24.67;;
70457;SDS011;57919;56.194;95.716;2023-02-08T17:04:29;73.13;;;31.63;;
70457;SDS011;57919;56.194;95.716;2023-02-08T17:14:32;130.00;;;54.53;;
70457;SDS011;57919;56.194;95.716;2023-02-08T17:24:34;204.60;;;82.47;;
70457;SDS011;57919;56.194;95.716;2023-02-08T17:34:36;310.30;;;109.77;;
70457;SDS011;57919;56.194;95.716;2023-02-08T17:44:39;177.05;;;68.72;;
70457;SDS011;57919;56.194;95.716;2023-02-08T17:54:41;137.90;;;56.92;;
70457;SDS011;57919;56.194;95.716;2023-02-08T18:04:43;93.60;;;41.80;;
70457;SDS011;57919;56.194;95.716;2023-02-08T18:14:45;99.87;;;35.07;;
70457;SDS011;57919;56.194;95.716;2023-02-08T18:24:47;73.13;;;34.45;;
70457;SDS011;57919;56.194;95.716;2023-02-08T18:34:50;142.13;;;50.27;;
70457;SDS011;57919;56.194;95.716;2023-02-08T18:44:52;109.37;;;45.03;;
70457;SDS011;57919;56.194;95.716;2023-02-08T18:54:54;119.65;;;52.65;;
70457;SDS011;57919;56.194;95.716;2023-02-08T19:04:56;104.77;;;44.07;;
70457;SDS011;57919;56.194;95.716;2023-02-08T19:14:58;179.80;;;63.60;;
70457;SDS011;57919;56.194;95.716;2023-02-08T19:24:59;97.18;;;45.90;;
70457;SDS011;57919;56.194;95.716;2023-02-08T19:35:01;114.75;;;46.80;;
70457;SDS011;57919;56.194;95.716;2023-02-08T19:45:03;118.47;;;52.57;;
70457;SDS011;57919;56.194;95.716;2023-02-08T19:55:06;128.33;;;52.30;;
70457;SDS011;57919;56.194;95.716;2023-02-08T20:05:09;164.07;;;63.17;;
70457;SDS011;57919;56.194;95.716;2023-02-08T20:15:11;132.00;;;54.47;;
70457;SDS011;57919;56.194;95.716;2023-02-08T20:25:13;175.27;;;60.53;;
70457;SDS011;57919;56.194;95.716;2023-02-08T20:35:15;124.88;;;53.10;;
70457;SDS011;57919;56.194;95.716;2023-02-08T20:45:17;105.60;;;44.67;;
70457;SDS011;57919;56.194;95.716;2023-02-08T20:55:19;94.23;;;32.10;;
70457;SDS011;57919;56.194;95.716;2023-02-08T21:05:21;141.60;;;54.70;;
70457;SDS011;57919;56.194;95.716;2023-02-08T21:15:25;120.00;;;46.22;;
70457;SDS011;57919;56.194;95.716;2023-02-08T21:25:27;121.43;;;52.20;;
70457;SDS011;57919;56.194;95.716;2023-02-08T21:35:30;115.10;;;49.17;;
70457;SDS011;57919;56.194;95.716;2023-02-08T21:45:35;173.13;;;69.25;;
70457;SDS011;57919;56.194;95.716;2023-02-08T21:55:38;146.10;;;59.13;;
70457;SDS011;57919;56.194;95.716;2023-02-08T22:05:46;178.27;;;67.77;;
70457;SDS011;57919;56.194;95.716;2023-02-08T22:15:49;142.40;;;60.95;;
70457;SDS011;57919;56.194;95.716;2023-02-08T22:25:51;119.73;;;46.60;;
70457;SDS011;57919;56.194;95.716;2023-02-08T22:35:53;106.33;;;41.13;;
70457;SDS011;57919;56.194;95.716;2023-02-08T22:45:58;157.18;;;61.97;;
70457;SDS011;57919;56.194;95.716;2023-02-08T22:56:00;94.97;;;39.85;;
70457;SDS011;57919;56.194;95.716;2023-02-08T23:06:04;73.07;;;33.13;;
70457;SDS011;57919;56.194;95.716;2023-02-08T23:16:10;54.43;;;28.77;;
70457;SDS011;57919;56.194;95.716;2023-02-08T23:26:14;62.22;;;26.40;;
70457;SDS011;57919;56.194;95.716;2023-02-08T23:36:19;58.63;;;28.33;;
70457;SDS011;57919;56.194;95.716;2023-02-08T23:46:24;54.37;;;26.60;;
70457;SDS011;57919;56.194;95.716;2023-02-08T23:56:29;50.22;;;25.92;;
